Flight Information

DEPARTURE
TONOPAH, NV
Elevation:
5430
Runways:
H1 - 48x48 - ASPH-G
11/29 - 5660x50 - ASPH-L
15/33 - 7160x75 - ASPH-E
CTAF:
123.000
DESTINATION
,
Elevation:
TPA:
1000 (est.)


6660.3 NM73° True-15° Var57° HDG

Flight Plan:
(click to file on line)

1. Type
2. Aircraft Identification
3. Aircraft Type / Special Equipment
4. True Airspeed
kts
5. Departure Airport
(ICAO code)
6. Arriving Airport
(ICAO code)
7. Cruising Altitude
ft
8. Alternate Airport
(ICAO code)
9. Route of Flight
10. Remarks


00:00:00 Departure ATIS: Destination ATIS:

Clearance Limit:
Route:
Altitude: Expect in minutes
Frequency:
Transponder: (7500 Hijack / 7600 Lost Comms / 7700 Emergency)


KTPH 282156Z AUTO 22005KT 10SM CLR 09/M21 A3041 RMK AO2 SLP305 T00941206
Time: 2022-01-28T21:56:00Z
1643407597
Winds: 220 @ 5 kts
Visibility: 10.0 sm
Clouds (AGL): CLR
Temperature: 9.4 C
Dew Point: -20.6 C
Pressure: 30.410433 in Hgbr


Notes:

Data extracted from FAA Digital Chart Supplement. Effective: 0901Z Thursday, DEC 2, 2021 to 0901Z Thursday, JAN 27, 2022
Current ATIS data is provided courtisy of PilotEdge.